Nearby METAR Reports

 

YMML - Melbourne Intl A, Australia
Distance from station: SSW 13km
Updated: Fri, 14-Dec-2018 5:00pm AEDT
Light rain, Showers, Mostly cloudy
Light rain, Showers, Mostly cloudy
 Wind from S
Wind: S 15 km/h
Temperature: 18°C
Dew Point: 18°C
Humidity: 100%
Barometer: 1003 hPa
Summary: Light rain, Showers
Clouds: Mostly Cloudy
Visibility: 7 km
Cloud details: Few Clouds 488 m
Partly Cloudy 945 m
Mostly Cloudy 1524 m
2018/12/14 06:00 YMML 140600Z 18008KT 7000 -SHRA FEW016 SCT031CB BKN050 18/18 Q1003
YMEN - Melbourne/Essend, Australia
Distance from station: S 16km
Updated: Fri, 14-Dec-2018 5:00pm AEDT
Rain showers, Overcast
Rain showers, Overcast
 Wind from SW
Wind: SW 13 km/h
Temperature: 19°C
Dew Point: 19°C
Humidity: 100%
Barometer: 1003 hPa
Summary: Rain Showers
Clouds: Overcast
Visibility: 10 km
Cloud details: Overcast 457 m
2018/12/14 06:00 YMEN 140600Z AUTO 22007KT 9999 SHRA OVC015 19/19 Q1003
 
YMAV - Avalon Airport, Australia
Distance from station: SW 63km
Updated: Fri, 14-Dec-2018 5:02pm AEDT
Mostly Cloudy
Mostly Cloudy
 Wind from SSE
Wind: SSE 22 km/h
Temperature: 21°C
Dew Point: 19°C
Humidity: 88%
Barometer: 1003 hPa
Clouds: Mostly Cloudy
Cloud details: Mostly Cloudy 335 m
Mostly Cloudy 823 m
2018/12/14 06:02 YMAV 140602Z AUTO 15012KT //// // BKN011 BKN027 21/19 Q1003

Metar display script from Saratoga-Weather.org